»·PEaware :: N129DQ KAVX-KSAN

N129DQ :: KAVX-KSAN

FLIGHT INFORMATION

Flight Status: Arrived
Operator: Privately registered:
United States
More flights under this callsign
Pilot: Doug M. (13043)
Aircraft: CESSNA 172 SKYHAWK
(C172)
More flights by this aircraft type
Origin: KAVX Catalina
United States
Destination: KSAN San Diego Intl-Lindbergh
United States
More flights between these airports :: More routes between these airports
Route: +SXC V208 OCN V23 MZB
File this flight plan on PilotEdge
Remarks: TEC route CSTP56 (I-8 Rating)
Altitude:
(Current/Filed)
5,000ft
Speed:
(Current/Filed)
1250kts
Departed: 03-Aug-18 07:35 PM
Arrived: 03-Aug-18 08:38 PM
Distance/Time
Traveled:
74nm/1:03
Distance/Time
To Go:
Arrived

Flight Plot

Page will automatically refresh every two minutes.


Map Options




Map Legend


Flown Route
Filed Route
Departure Airport
Arrival Airport
Navaid (VOR, NDB)
Fix

Horizontal Profiles

Position Reports

Time Latitude Longitude Heading Altitude Ground
Speed
03-Aug-18 19:23 33.403292 -118.415955 44 1553ft 0kts
03-Aug-18 19:24 33.403292 -118.415955 44 1553ft 0kts
03-Aug-18 19:25 33.403292 -118.415955 44 1553ft 0kts
03-Aug-18 19:26 33.403292 -118.415955 44 1553ft 0kts
03-Aug-18 19:27 33.403292 -118.415955 44 1553ft 0kts
03-Aug-18 19:28 33.403292 -118.415955 44 1553ft 0kts
03-Aug-18 19:29 33.403292 -118.415955 44 1553ft 0kts
03-Aug-18 19:30 33.403292 -118.415955 44 1553ft 0kts
03-Aug-18 19:31 33.403292 -118.415955 44 1553ft 0kts
03-Aug-18 19:32 33.404108 -118.415024 8 1553ft 20kts
03-Aug-18 19:33 33.407209 -118.411392 0 1553ft 0kts
03-Aug-18 19:34 33.407209 -118.411392 0 1553ft 0kts
03-Aug-18 19:35 33.407209 -118.411392 0 1553ft 0kts
03-Aug-18 19:36 33.401041 -118.422293 233 1651ft 89kts
03-Aug-18 19:37 33.386329 -118.446021 227 2348ft 88kts
03-Aug-18 19:38 33.374118 -118.433516 83 3053ft 80kts
03-Aug-18 19:39 33.373431 -118.406704 97 3644ft 87kts
03-Aug-18 19:40 33.369546 -118.375493 97 4001ft 110kts
03-Aug-18 19:41 33.364347 -118.336121 98 4000ft 127kts
03-Aug-18 19:42 33.359486 -118.298741 97 4603ft 99kts
03-Aug-18 19:43 33.355465 -118.267228 97 4995ft 110kts
03-Aug-18 19:44 33.350240 -118.228206 97 4988ft 122kts
03-Aug-18 19:45 33.344835 -118.187555 97 4984ft 124kts
03-Aug-18 19:46 33.339426 -118.146689 97 4980ft 125kts
03-Aug-18 19:47 33.333977 -118.105561 97 4978ft 125kts
03-Aug-18 19:48 33.330557 -118.079783 97 4977ft 125kts
03-Aug-18 19:49 33.322972 -118.023105 98 4971ft 126kts
03-Aug-18 19:50 33.317434 -117.981781 98 4966ft 126kts
03-Aug-18 19:51 33.311850 -117.940072 98 4960ft 127kts
03-Aug-18 19:52 33.306254 -117.898354 99 4954ft 127kts
03-Aug-18 19:53 33.300742 -117.857320 100 5002ft 126kts
03-Aug-18 19:54 33.295166 -117.815987 100 4998ft 126kts
03-Aug-18 19:55 33.289536 -117.774355 100 4999ft 126kts
03-Aug-18 19:56 33.283695 -117.732852 101 4999ft 126kts
03-Aug-18 19:57 33.277456 -117.691435 101 5000ft 126kts
03-Aug-18 19:58 33.271329 -117.650784 101 5000ft 126kts
03-Aug-18 19:59 33.264944 -117.608605 101 5000ft 126kts
03-Aug-18 20:00 33.258945 -117.567249 99 4998ft 127kts
03-Aug-18 20:01 33.253870 -117.525414 99 4996ft 127kts
03-Aug-18 20:02 33.248759 -117.483453 99 4993ft 127kts
03-Aug-18 20:03 33.243812 -117.442954 99 4991ft 127kts
03-Aug-18 20:04 33.225620 -117.412645 161 4990ft 120kts
03-Aug-18 20:05 33.194280 -117.398417 162 4993ft 121kts
03-Aug-18 20:06 33.162547 -117.384764 162 4995ft 121kts
03-Aug-18 20:07 33.130607 -117.371301 162 4999ft 122kts
03-Aug-18 20:08 33.098655 -117.357870 161 5000ft 122kts
03-Aug-18 20:09 33.066814 -117.344492 162 4999ft 122kts
03-Aug-18 20:10 33.034935 -117.331125 162 5000ft 122kts
03-Aug-18 20:11 33.003873 -117.318086 161 5000ft 122kts
03-Aug-18 20:12 32.970535 -117.304109 161 5001ft 123kts
03-Aug-18 20:13 32.938235 -117.290578 161 5002ft 123kts
03-Aug-18 20:14 32.905852 -117.277027 161 5003ft 123kts
03-Aug-18 20:15 32.873708 -117.263580 161 5003ft 123kts
03-Aug-18 20:16 32.841589 -117.250169 161 5002ft 116kts
03-Aug-18 20:17 32.812098 -117.237850 161 5004ft 111kts
03-Aug-18 20:18 32.799921 -117.206659 101 4989ft 113kts
03-Aug-18 20:19 32.793580 -117.170313 100 4989ft 115kts
03-Aug-18 20:20 32.786625 -117.130126 100 4990ft 128kts
03-Aug-18 20:21 32.779542 -117.088930 100 4990ft 130kts
03-Aug-18 20:22 32.772419 -117.047130 100 4990ft 130kts
03-Aug-18 20:23 32.765801 -117.007775 100 4990ft 131kts
03-Aug-18 20:24 32.758739 -116.965115 100 4990ft 132kts
03-Aug-18 20:25 32.751782 -116.922271 100 4990ft 132kts
03-Aug-18 20:26 32.744916 -116.879143 100 4990ft 132kts
03-Aug-18 20:27 32.723965 -116.853082 198 4616ft 129kts
03-Aug-18 20:28 32.690772 -116.866534 201 3797ft 114kts
03-Aug-18 20:29 32.664855 -116.879230 237 3787ft 96kts
03-Aug-18 20:30 32.665425 -116.910170 285 3754ft 96kts
03-Aug-18 20:31 32.672790 -116.940534 285 3653ft 104kts
03-Aug-18 20:32 32.680768 -116.973076 285 3590ft 99kts
03-Aug-18 20:33 32.689599 -117.008979 286 2933ft 120kts
03-Aug-18 20:34 32.698003 -117.043559 285 2678ft 100kts
03-Aug-18 20:35 32.706768 -117.079394 285 1999ft 109kts
03-Aug-18 20:36 32.714831 -117.112594 285 1558ft 106kts
03-Aug-18 20:37 32.723049 -117.146299 285 786ft 104kts
03-Aug-18 20:38 32.729699 -117.173540 286 234ft 78kts
03-Aug-18 20:39 32.733999 -117.188058 15 18ft 0kts
03-Aug-18 20:40 32.734013 -117.188053 15 18ft 3kts
03-Aug-18 20:41 32.734401 -117.185771 14 18ft 0kts

Navigation Log

Ident Type
Flight plan parsing failed, navigation log unavailable